Joplin, MT (59531)

4:34 AM MDT on April 02, 2015 (GMT -0600)
17 miles N. of Chester, MT; Mattson Bros Inc. Farms | | Change Station
CLOSE
Current Station
Personal Weather Station
Location: Chester, MT
Elevation: 3497 ft
Nearby Weather Stations

Elev 3497 ft 48.74 °N, 110.93 °W | Updated 12 minutes ago

Overcast
Overcast
28.2 °F
Feels Like 18 °F
N
13.0
Wind Variable Wind from NNW
Gusts 21.0 mph

Today
High -- | Low -- °F
--% Chance of Precip.
Yesterday
High -- | Low -- °F
Precip. -- in
6:59 AM 7:55 PM
Waxing Gibbous, 96% visible
Pressure 30.04 in
Visibility 10.0 miles
Clouds Overcast 9000 ft
Windchill 18 °F
Dew Point 20 °F
Humidity 70%
Rainfall 0.00 in
Snow Depth Not available.
UV 0 out of 12
Pollen 8.90 out of 12
Air Quality Not available.
Flu Activity Not available.
METAR KHVR 020953Z AUTO 30019G25KT 10SM OVC090 00/M04 A3000 RMK AO2 PK WND 31030/0907 SLP172 T00001044

More Conditions Fewer Conditions

Pressure 30.04 in
Visibility 10.0 miles
Clouds Overcast 9000 ft
Windchill 18 °F
Dew Point 20 °F
Humidity 70%
Rainfall 0.00 in
Snow Depth Not available.
UV 0 out of 12
Pollen 8.90 out of 12
Air Quality Not available.
Flu Activity Not available.
METAR KHVR 020953Z AUTO 30019G25KT 10SM OVC090 00/M04 A3000 RMK AO2 PK WND 31030/0907 SLP172 T00001044

More Conditions Fewer Conditions

10-Day Weather Forecast

Almanac

Astronomy

Apr. 02, 2015 Rise Set
Actual Time
Civil Twilight
Nautical Twilight
Astronomical Twilight
Moon
Length of Visible Light
Length of Day
Tomorrow will be .
, % of the Moon is Illuminated

Today's Extremes

State Highs State Lows

Community

WunderPhotos

Upload Photos

1,810,216 photos uploaded!

WunderBlogs® & News

Nearby

Air Quality

  Air Quality AQ Index Pollutant
Not available.

Snow Depth

Station Depth Elevation

Earthquake Activity

City Distance Mag. Time & Date
Minimum magnitude displayed is 2.5.

Coastal Water Temperatures

Place Temperature

Stations

Nearby Weather Stations

Station Location Temp. Windchill Dew Point Humidity Wind Precip. Elev Updated Type